sensor_id;sensor_type;location;lat;lon;timestamp;pressure;altitude;pressure_sealevel;temperature;humidity
24858;BME280;12935;50.782;6.074;2023-10-19T00:00:39;97320.81;;;16.01;100.00
24858;BME280;12935;50.782;6.074;2023-10-19T00:03:10;97320.31;;;16.03;100.00
24858;BME280;12935;50.782;6.074;2023-10-19T00:05:36;97343.03;;;15.98;100.00
24858;BME280;12935;50.782;6.074;2023-10-19T00:08:03;97338.84;;;16.02;100.00
24858;BME280;12935;50.782;6.074;2023-10-19T00:10:45;97340.69;;;15.70;100.00
24858;BME280;12935;50.782;6.074;2023-10-19T00:13:14;97340.88;;;15.67;100.00
24858;BME280;12935;50.782;6.074;2023-10-19T00:15:42;97332.47;;;15.76;100.00
24858;BME280;12935;50.782;6.074;2023-10-19T00:18:17;97333.47;;;15.73;100.00
24858;BME280;12935;50.782;6.074;2023-10-19T00:20:44;97340.69;;;15.70;100.00
24858;BME280;12935;50.782;6.074;2023-10-19T00:23:29;97328.78;;;15.79;100.00
24858;BME280;12935;50.782;6.074;2023-10-19T00:25:57;97338.53;;;15.60;100.00
24858;BME280;12935;50.782;6.074;2023-10-19T00:28:22;97332.63;;;15.67;100.00
24858;BME280;12935;50.782;6.074;2023-10-19T00:30:51;97330.28;;;15.60;100.00
24858;BME280;12935;50.782;6.074;2023-10-19T00:33:27;97341.50;;;15.76;100.00
24858;BME280;12935;50.782;6.074;2023-10-19T00:35:54;97339.19;;;15.90;100.00
24858;BME280;12935;50.782;6.074;2023-10-19T00:38:24;97343.94;;;15.89;100.00
24858;BME280;12935;50.782;6.074;2023-10-19T00:41:08;97348.81;;;15.79;100.00
24858;BME280;12935;50.782;6.074;2023-10-19T00:43:41;97349.28;;;15.78;100.00
24858;BME280;12935;50.782;6.074;2023-10-19T00:46:16;97346.34;;;15.82;100.00
24858;BME280;12935;50.782;6.074;2023-10-19T00:48:51;97352.03;;;15.78;100.00
24858;BME280;12935;50.782;6.074;2023-10-19T00:51:22;97355.06;;;15.80;100.00
24858;BME280;12935;50.782;6.074;2023-10-19T00:53:55;97353.97;;;15.72;100.00
24858;BME280;12935;50.782;6.074;2023-10-19T00:56:23;97349.00;;;15.76;100.00
24858;BME280;12935;50.782;6.074;2023-10-19T00:58:52;97352.03;;;15.78;100.00
24858;BME280;12935;50.782;6.074;2023-10-19T01:01:29;97358.78;;;15.77;100.00
24858;BME280;12935;50.782;6.074;2023-10-19T01:03:55;97354.13;;;15.83;100.00
24858;BME280;12935;50.782;6.074;2023-10-19T01:06:25;97353.44;;;15.88;100.00
24858;BME280;12935;50.782;6.074;2023-10-19T01:08:52;97360.94;;;15.88;100.00
24858;BME280;12935;50.782;6.074;2023-10-19T01:11:20;97357.97;;;15.91;100.00
24858;BME280;12935;50.782;6.074;2023-10-19T01:13:47;97353.50;;;15.94;100.00
24858;BME280;12935;50.782;6.074;2023-10-19T01:16:17;97344.47;;;15.93;100.00
24858;BME280;12935;50.782;6.074;2023-10-19T01:18:50;97340.69;;;15.91;100.00
24858;BME280;12935;50.782;6.074;2023-10-19T01:21:21;97345.72;;;15.92;100.00
24858;BME280;12935;50.782;6.074;2023-10-19T01:23:50;97343.03;;;15.77;100.00
24858;BME280;12935;50.782;6.074;2023-10-19T01:26:15;97340.50;;;15.74;100.00
24858;BME280;12935;50.782;6.074;2023-10-19T01:28:51;97340.22;;;15.72;100.00
24858;BME280;12935;50.782;6.074;2023-10-19T01:31:26;97333.72;;;15.75;100.00
24858;BME280;12935;50.782;6.074;2023-10-19T01:33:58;97331.47;;;15.73;100.00
24858;BME280;12935;50.782;6.074;2023-10-19T01:36:27;97336.75;;;15.77;100.00
24858;BME280;12935;50.782;6.074;2023-10-19T01:38:57;97339.75;;;15.73;100.00
24858;BME280;12935;50.782;6.074;2023-10-19T01:41:27;97343.16;;;15.68;100.00
24858;BME280;12935;50.782;6.074;2023-10-19T01:43:53;97336.41;;;15.69;100.00
24858;BME280;12935;50.782;6.074;2023-10-19T01:46:21;97339.50;;;15.77;100.00
24858;BME280;12935;50.782;6.074;2023-10-19T01:48:48;97331.53;;;15.79;100.00
24858;BME280;12935;50.782;6.074;2023-10-19T01:51:22;97332.28;;;15.79;100.00
24858;BME280;12935;50.782;6.074;2023-10-19T01:53:49;97337.31;;;15.81;100.00
24858;BME280;12935;50.782;6.074;2023-10-19T01:56:16;97345.09;;;15.83;100.00
24858;BME280;12935;50.782;6.074;2023-10-19T01:58:44;97341.31;;;15.80;100.00
24858;BME280;12935;50.782;6.074;2023-10-19T02:01:12;97337.50;;;15.77;100.00
24858;BME280;12935;50.782;6.074;2023-10-19T02:03:42;97348.75;;;15.74;100.00
24858;BME280;12935;50.782;6.074;2023-10-19T02:06:13;97337.38;;;15.66;100.00
24858;BME280;12935;50.782;6.074;2023-10-19T02:08:48;97338.00;;;15.76;100.00
24858;BME280;12935;50.782;6.074;2023-10-19T02:11:23;97332.78;;;15.78;100.00
24858;BME280;12935;50.782;6.074;2023-10-19T02:13:50;97336.75;;;15.77;100.00
24858;BME280;12935;50.782;6.074;2023-10-19T02:16:18;97323.28;;;15.79;100.00
24858;BME280;12935;50.782;6.074;2023-10-19T02:18:55;97323.97;;;15.74;100.00
24858;BME280;12935;50.782;6.074;2023-10-19T02:21:21;97325.06;;;15.82;100.00
24858;BME280;12935;50.782;6.074;2023-10-19T02:23:50;97317.28;;;15.81;100.00
24858;BME280;12935;50.782;6.074;2023-10-19T02:26:17;97308.63;;;15.88;100.00
24858;BME280;12935;50.782;6.074;2023-10-19T02:28:48;97304.41;;;15.92;100.00
24858;BME280;12935;50.782;6.074;2023-10-19T02:31:17;97305.91;;;15.93;100.00
24858;BME280;12935;50.782;6.074;2023-10-19T02:33:50;97297.44;;;15.97;100.00
24858;BME280;12935;50.782;6.074;2023-10-19T02:36:29;97302.06;;;15.85;100.00
24858;BME280;12935;50.782;6.074;2023-10-19T02:39:00;97283.22;;;15.78;100.00
24858;BME280;12935;50.782;6.074;2023-10-19T02:41:26;97294.50;;;15.80;100.00
24858;BME280;12935;50.782;6.074;2023-10-19T02:43:52;97286.31;;;15.86;100.00
24858;BME280;12935;50.782;6.074;2023-10-19T02:46:31;97287.97;;;15.77;100.00
24858;BME280;12935;50.782;6.074;2023-10-19T02:49:06;97284.72;;;15.79;100.00
24858;BME280;12935;50.782;6.074;2023-10-19T02:51:41;97288.09;;;15.68;100.00
24858;BME280;12935;50.782;6.074;2023-10-19T02:54:09;97287.44;;;15.73;100.00
24858;BME280;12935;50.782;6.074;2023-10-19T02:56:41;97277.66;;;15.72;100.00
24858;BME280;12935;50.782;6.074;2023-10-19T02:59:09;97279.94;;;15.74;100.00
24858;BME280;12935;50.782;6.074;2023-10-19T03:01:34;97287.97;;;15.77;100.00
24858;BME280;12935;50.782;6.074;2023-10-19T03:04:02;97280.19;;;15.76;100.00
24858;BME280;12935;50.782;6.074;2023-10-19T03:06:30;97278.31;;;15.67;100.00
24858;BME280;12935;50.782;6.074;2023-10-19T03:08:59;97278.25;;;15.62;100.00
24858;BME280;12935;50.782;6.074;2023-10-19T03:11:42;97263.69;;;15.56;100.00
24858;BME280;12935;50.782;6.074;2023-10-19T03:14:11;97276.28;;;15.48;100.00
24858;BME280;12935;50.782;6.074;2023-10-19T03:16:38;97271.81;;;15.50;100.00
24858;BME280;12935;50.782;6.074;2023-10-19T03:19:07;97271.19;;;15.55;100.00
24858;BME280;12935;50.782;6.074;2023-10-19T03:21:33;97258.94;;;15.56;100.00
24858;BME280;12935;50.782;6.074;2023-10-19T03:24:08;97258.03;;;15.65;100.00
24858;BME280;12935;50.782;6.074;2023-10-19T03:26:39;97250.31;;;15.69;100.00
24858;BME280;12935;50.782;6.074;2023-10-19T03:29:14;97242.75;;;15.64;100.00
24858;BME280;12935;50.782;6.074;2023-10-19T03:31:41;97252.44;;;15.59;100.00
24858;BME280;12935;50.782;6.074;2023-10-19T03:34:14;97253.28;;;15.65;100.00
24858;BME280;12935;50.782;6.074;2023-10-19T03:36:42;97241.50;;;15.65;100.00
24858;BME280;12935;50.782;6.074;2023-10-19T03:39:07;97240.75;;;15.64;100.00
24858;BME280;12935;50.782;6.074;2023-10-19T03:41:40;97242.53;;;15.67;100.00
24858;BME280;12935;50.782;6.074;2023-10-19T03:44:13;97252.13;;;15.72;100.00
24858;BME280;12935;50.782;6.074;2023-10-19T03:46:44;97244.88;;;15.74;100.00
24858;BME280;12935;50.782;6.074;2023-10-19T03:49:29;97243.16;;;15.77;100.00
24858;BME280;12935;50.782;6.074;2023-10-19T03:52:03;97229.34;;;15.71;100.00
24858;BME280;12935;50.782;6.074;2023-10-19T03:54:35;97241.84;;;15.72;100.00
24858;BME280;12935;50.782;6.074;2023-10-19T03:57:08;97237.13;;;15.73;100.00
24858;BME280;12935;50.782;6.074;2023-10-19T03:59:38;97245.28;;;15.67;100.00
24858;BME280;12935;50.782;6.074;2023-10-19T04:02:04;97247.09;;;15.70;100.00
24858;BME280;12935;50.782;6.074;2023-10-19T04:04:41;97238.44;;;15.57;100.00
24858;BME280;12935;50.782;6.074;2023-10-19T04:07:15;97242.50;;;15.47;100.00
24858;BME280;12935;50.782;6.074;2023-10-19T04:09:50;97236.53;;;15.49;100.00
24858;BME280;12935;50.782;6.074;2023-10-19T04:12:38;97237.56;;;15.51;100.00
24858;BME280;12935;50.782;6.074;2023-10-19T04:15:05;97245.47;;;15.43;100.00
24858;BME280;12935;50.782;6.074;2023-10-19T04:17:37;97251.59;;;15.33;100.00
24858;BME280;12935;50.782;6.074;2023-10-19T04:20:08;97244.38;;;15.35;100.00
24858;BME280;12935;50.782;6.074;2023-10-19T04:22:53;97244.69;;;15.43;100.00
24858;BME280;12935;50.782;6.074;2023-10-19T04:25:19;97250.97;;;15.43;100.00
24858;BME280;12935;50.782;6.074;2023-10-19T04:27:46;97246.50;;;15.46;100.00
24858;BME280;12935;50.782;6.074;2023-10-19T04:30:13;97237.00;;;15.47;100.00
24858;BME280;12935;50.782;6.074;2023-10-19T04:32:42;97244.97;;;15.45;100.00
24858;BME280;12935;50.782;6.074;2023-10-19T04:35:07;97241.25;;;15.28;100.00
24858;BME280;12935;50.782;6.074;2023-10-19T04:37:36;97246.97;;;15.24;100.00
24858;BME280;12935;50.782;6.074;2023-10-19T04:40:02;97249.91;;;15.21;100.00
24858;BME280;12935;50.782;6.074;2023-10-19T04:42:28;97251.78;;;15.29;100.00
24858;BME280;12935;50.782;6.074;2023-10-19T04:44:56;97248.91;;;15.38;100.00
24858;BME280;12935;50.782;6.074;2023-10-19T04:47:21;97264.84;;;15.34;100.00
24858;BME280;12935;50.782;6.074;2023-10-19T04:49:47;97255.16;;;15.39;100.00
24858;BME280;12935;50.782;6.074;2023-10-19T04:52:12;97261.22;;;15.43;100.00
24858;BME280;12935;50.782;6.074;2023-10-19T04:54:37;97260.44;;;15.42;100.00
24858;BME280;12935;50.782;6.074;2023-10-19T04:57:03;97254.41;;;15.38;100.00
24858;BME280;12935;50.782;6.074;2023-10-19T04:59:28;97250.72;;;15.41;100.00
24858;BME280;12935;50.782;6.074;2023-10-19T05:01:58;97254.75;;;15.46;100.00
24858;BME280;12935;50.782;6.074;2023-10-19T05:04:23;97255.88;;;15.54;100.00
24858;BME280;12935;50.782;6.074;2023-10-19T05:06:49;97254.66;;;15.55;100.00
24858;BME280;12935;50.782;6.074;2023-10-19T05:09:15;97260.06;;;15.50;100.00
24858;BME280;12935;50.782;6.074;2023-10-19T05:11:40;97255.13;;;15.54;100.00
24858;BME280;12935;50.782;6.074;2023-10-19T05:14:06;97252.09;;;15.52;100.00
24858;BME280;12935;50.782;6.074;2023-10-19T05:16:31;97255.31;;;15.50;100.00
24858;BME280;12935;50.782;6.074;2023-10-19T05:18:56;97257.59;;;15.52;100.00
24858;BME280;12935;50.782;6.074;2023-10-19T05:21:23;97245.53;;;15.49;100.00
24858;BME280;12935;50.782;6.074;2023-10-19T05:23:48;97244.97;;;15.45;100.00
24858;BME280;12935;50.782;6.074;2023-10-19T05:26:14;97238.25;;;15.46;100.00
24858;BME280;12935;50.782;6.074;2023-10-19T05:28:40;97248.75;;;15.48;100.00
24858;BME280;12935;50.782;6.074;2023-10-19T05:31:08;97248.28;;;15.49;100.00
24858;BME280;12935;50.782;6.074;2023-10-19T05:33:33;97245.22;;;15.41;100.00
24858;BME280;12935;50.782;6.074;2023-10-19T05:35:59;97248.72;;;15.42;100.00
24858;BME280;12935;50.782;6.074;2023-10-19T05:38:26;97242.03;;;15.49;100.00
24858;BME280;12935;50.782;6.074;2023-10-19T05:40:52;97253.31;;;15.51;100.00
24858;BME280;12935;50.782;6.074;2023-10-19T05:43:20;97252.75;;;15.47;100.00
24858;BME280;12935;50.782;6.074;2023-10-19T05:45:46;97256.69;;;15.40;100.00
24858;BME280;12935;50.782;6.074;2023-10-19T05:48:15;97260.72;;;15.44;100.00
24858;BME280;12935;50.782;6.074;2023-10-19T05:50:41;97265.56;;;15.50;100.00
24858;BME280;12935;50.782;6.074;2023-10-19T05:53:08;97259.50;;;15.45;100.00
24858;BME280;12935;50.782;6.074;2023-10-19T05:55:33;97256.25;;;15.47;100.00
24858;BME280;12935;50.782;6.074;2023-10-19T05:58:02;97256.25;;;15.47;100.00
24858;BME280;12935;50.782;6.074;2023-10-19T06:00:31;97256.81;;;15.51;100.00
24858;BME280;12935;50.782;6.074;2023-10-19T06:02:57;97265.47;;;15.44;100.00
24858;BME280;12935;50.782;6.074;2023-10-19T06:05:25;97263.63;;;15.35;100.00
24858;BME280;12935;50.782;6.074;2023-10-19T06:07:51;97269.59;;;15.34;100.00
24858;BME280;12935;50.782;6.074;2023-10-19T06:10:19;97268.84;;;15.33;100.00
24858;BME280;12935;50.782;6.074;2023-10-19T06:12:47;97265.53;;;15.29;100.00
24858;BME280;12935;50.782;6.074;2023-10-19T06:15:14;97270.75;;;15.27;100.00
24858;BME280;12935;50.782;6.074;2023-10-19T06:17:41;97275.72;;;15.23;100.00
24858;BME280;12935;50.782;6.074;2023-10-19T06:20:09;97279.69;;;15.22;100.00
24858;BME280;12935;50.782;6.074;2023-10-19T06:22:56;97278.81;;;15.31;100.00
24858;BME280;12935;50.782;6.074;2023-10-19T06:25:23;97273.78;;;15.29;100.00
24858;BME280;12935;50.782;6.074;2023-10-19T06:27:50;97285.28;;;15.28;100.00
24858;BME280;12935;50.782;6.074;2023-10-19T06:30:18;97288.09;;;15.33;100.00
24858;BME280;12935;50.782;6.074;2023-10-19T06:32:47;97290.56;;;15.31;100.00
24858;BME280;12935;50.782;6.074;2023-10-19T06:35:13;97291.41;;;15.37;100.00
24858;BME280;12935;50.782;6.074;2023-10-19T06:37:39;97296.06;;;15.31;100.00
24858;BME280;12935;50.782;6.074;2023-10-19T06:40:06;97291.28;;;15.26;100.00
24858;BME280;12935;50.782;6.074;2023-10-19T06:42:32;97296.41;;;15.19;100.00
24858;BME280;12935;50.782;6.074;2023-10-19T06:44:58;97296.69;;;15.21;100.00
24858;BME280;12935;50.782;6.074;2023-10-19T06:47:23;97286.91;;;15.20;100.00
24858;BME280;12935;50.782;6.074;2023-10-19T06:49:49;97297.16;;;15.19;100.00
24858;BME280;12935;50.782;6.074;2023-10-19T06:52:15;97291.94;;;15.21;100.00
24858;BME280;12935;50.782;6.074;2023-10-19T06:54:43;97296.69;;;15.21;100.00
24858;BME280;12935;50.782;6.074;2023-10-19T06:57:09;97296.88;;;15.17;100.00
24858;BME280;12935;50.782;6.074;2023-10-19T06:59:36;97298.47;;;15.24;100.00
24858;BME280;12935;50.782;6.074;2023-10-19T07:02:02;97309.84;;;15.31;100.00
24858;BME280;12935;50.782;6.074;2023-10-19T07:04:30;97305.94;;;15.38;100.00
24858;BME280;12935;50.782;6.074;2023-10-19T07:06:57;97303.94;;;15.38;100.00
24858;BME280;12935;50.782;6.074;2023-10-19T07:09:23;97307.66;;;15.35;100.00
24858;BME280;12935;50.782;6.074;2023-10-19T07:11:49;97304.13;;;15.35;100.00
24858;BME280;12935;50.782;6.074;2023-10-19T07:14:19;97296.97;;;15.43;100.00
24858;BME280;12935;50.782;6.074;2023-10-19T07:16:44;97287.09;;;15.51;100.00
24858;BME280;12935;50.782;6.074;2023-10-19T07:19:10;97285.69;;;15.56;100.00
24858;BME280;12935;50.782;6.074;2023-10-19T07:21:36;97284.22;;;15.60;100.00
24858;BME280;12935;50.782;6.074;2023-10-19T07:24:03;97287.22;;;15.57;100.00
24858;BME280;12935;50.782;6.074;2023-10-19T07:26:34;97288.78;;;15.63;100.00
24858;BME280;12935;50.782;6.074;2023-10-19T07:29:06;97288.38;;;15.70;100.00
24858;BME280;12935;50.782;6.074;2023-10-19T07:31:35;97283.34;;;15.69;100.00
24858;BME280;12935;50.782;6.074;2023-10-19T07:34:00;97286.66;;;15.73;100.00
24858;BME280;12935;50.782;6.074;2023-10-19T07:36:26;97279.69;;;15.77;100.00
24858;BME280;12935;50.782;6.074;2023-10-19T07:38:51;97289.00;;;15.80;100.00
24858;BME280;12935;50.782;6.074;2023-10-19T07:41:17;97275.50;;;15.82;100.00
24858;BME280;12935;50.782;6.074;2023-10-19T07:43:43;97275.31;;;15.86;100.00
24858;BME280;12935;50.782;6.074;2023-10-19T07:46:12;97267.31;;;15.88;100.00
24858;BME280;12935;50.782;6.074;2023-10-19T07:48:37;97271.34;;;15.92;100.00
24858;BME280;12935;50.782;6.074;2023-10-19T07:51:04;97271.50;;;16.03;100.00
24858;BME280;12935;50.782;6.074;2023-10-19T07:53:29;97270.38;;;16.16;100.00
24858;BME280;12935;50.782;6.074;2023-10-19T07:55:55;97263.66;;;16.22;100.00
24858;BME280;12935;50.782;6.074;2023-10-19T07:58:22;97269.50;;;16.30;100.00
24858;BME280;12935;50.782;6.074;2023-10-19T08:00:48;97261.19;;;16.24;100.00
24858;BME280;12935;50.782;6.074;2023-10-19T08:03:14;97271.31;;;16.33;100.00
24858;BME280;12935;50.782;6.074;2023-10-19T08:05:42;97267.88;;;16.43;100.00
24858;BME280;12935;50.782;6.074;2023-10-19T08:08:07;97264.97;;;16.53;100.00
24858;BME280;12935;50.782;6.074;2023-10-19T08:10:34;97251.50;;;16.60;100.00
24858;BME280;12935;50.782;6.074;2023-10-19T08:12:59;97256.94;;;16.55;100.00
24858;BME280;12935;50.782;6.074;2023-10-19T08:15:26;97255.41;;;16.48;100.00
24858;BME280;12935;50.782;6.074;2023-10-19T08:17:55;97267.47;;;16.51;100.00
24858;BME280;12935;50.782;6.074;2023-10-19T08:20:21;97263.97;;;16.56;100.00
24858;BME280;12935;50.782;6.074;2023-10-19T08:22:57;97256.94;;;16.55;100.00
24858;BME280;12935;50.782;6.074;2023-10-19T08:25:23;97259.16;;;16.76;100.00
24858;BME280;12935;50.782;6.074;2023-10-19T08:27:49;97254.50;;;16.88;100.00
24858;BME280;12935;50.782;6.074;2023-10-19T08:30:17;97249.84;;;17.00;100.00
24858;BME280;12935;50.782;6.074;2023-10-19T08:32:44;97247.41;;;17.13;100.00
24858;BME280;12935;50.782;6.074;2023-10-19T08:35:18;97252.38;;;17.09;100.00
24858;BME280;12935;50.782;6.074;2023-10-19T08:37:49;97245.84;;;17.06;100.00
24858;BME280;12935;50.782;6.074;2023-10-19T08:40:15;97238.09;;;17.10;100.00
24858;BME280;12935;50.782;6.074;2023-10-19T08:42:43;97234.38;;;17.13;100.00
24858;BME280;12935;50.782;6.074;2023-10-19T08:45:10;97234.38;;;17.13;100.00
24858;BME280;12935;50.782;6.074;2023-10-19T08:48:02;97228.09;;;17.18;100.00
24858;BME280;12935;50.782;6.074;2023-10-19T08:50:29;97214.31;;;17.18;100.00
24858;BME280;12935;50.782;6.074;2023-10-19T08:52:57;97222.00;;;17.03;100.00
24858;BME280;12935;50.782;6.074;2023-10-19T08:55:23;97217.50;;;17.06;100.00
24858;BME280;12935;50.782;6.074;2023-10-19T08:57:49;97220.34;;;17.23;100.00
24858;BME280;12935;50.782;6.074;2023-10-19T09:00:17;97214.69;;;17.48;100.00
24858;BME280;12935;50.782;6.074;2023-10-19T09:02:44;97216.97;;;17.50;100.00
24858;BME280;12935;50.782;6.074;2023-10-19T09:05:09;97219.22;;;17.51;100.00
24858;BME280;12935;50.782;6.074;2023-10-19T09:07:46;97218.47;;;17.51;100.00
24858;BME280;12935;50.782;6.074;2023-10-19T09:10:16;97222.28;;;17.59;100.00
24858;BME280;12935;50.782;6.074;2023-10-19T09:12:41;97211.81;;;17.69;100.00
24858;BME280;12935;50.782;6.074;2023-10-19T09:15:28;97214.84;;;17.76;100.00
24858;BME280;12935;50.782;6.074;2023-10-19T09:20:43;97210.63;;;17.98;100.00
24858;BME280;12935;50.782;6.074;2023-10-19T09:23:21;97219.66;;;17.98;100.00
24858;BME280;12935;50.782;6.074;2023-10-19T09:25:49;97211.41;;;18.09;100.00
24858;BME280;12935;50.782;6.074;2023-10-19T09:28:15;97217.44;;;18.13;100.00
24858;BME280;12935;50.782;6.074;2023-10-19T09:30:42;97204.13;;;18.06;100.00
24858;BME280;12935;50.782;6.074;2023-10-19T09:33:17;97201.59;;;18.14;100.00
24858;BME280;12935;50.782;6.074;2023-10-19T09:35:47;97210.69;;;18.26;100.00
24858;BME280;12935;50.782;6.074;2023-10-19T09:38:18;97212.69;;;18.36;100.00
24858;BME280;12935;50.782;6.074;2023-10-19T09:40:51;97212.72;;;18.58;100.00
24858;BME280;12935;50.782;6.074;2023-10-19T09:43:24;97207.44;;;18.77;100.00
24858;BME280;12935;50.782;6.074;2023-10-19T09:45:56;97208.16;;;18.95;100.00
24858;BME280;12935;50.782;6.074;2023-10-19T09:48:24;97209.44;;;18.82;100.00
24858;BME280;12935;50.782;6.074;2023-10-19T09:50:53;97202.09;;;19.13;100.00
24858;BME280;12935;50.782;6.074;2023-10-19T09:53:27;97196.22;;;19.50;100.00
24858;BME280;12935;50.782;6.074;2023-10-19T09:55:57;97185.59;;;19.65;100.00
24858;BME280;12935;50.782;6.074;2023-10-19T09:58:27;97181.31;;;19.64;100.00
24858;BME280;12935;50.782;6.074;2023-10-19T10:00:54;97187.53;;;19.81;100.00
24858;BME280;12935;50.782;6.074;2023-10-19T10:06:17;97176.28;;;19.57;100.00
24858;BME280;12935;50.782;6.074;2023-10-19T10:08:52;97173.06;;;19.42;100.00
24858;BME280;12935;50.782;6.074;2023-10-19T10:13:44;97176.56;;;19.48;100.00
24858;BME280;12935;50.782;6.074;2023-10-19T10:16:28;97190.41;;;19.48;100.00
24858;BME280;12935;50.782;6.074;2023-10-19T10:18:56;97189.16;;;19.54;100.00
24858;BME280;12935;50.782;6.074;2023-10-19T10:21:26;97187.34;;;19.63;100.00
24858;BME280;12935;50.782;6.074;2023-10-19T10:23:54;97182.25;;;19.72;100.00
24858;BME280;12935;50.782;6.074;2023-10-19T10:26:22;97187.31;;;19.68;100.00
24858;BME280;12935;50.782;6.074;2023-10-19T10:29:10;97183.09;;;19.61;100.00
24858;BME280;12935;50.782;6.074;2023-10-19T10:31:47;97185.00;;;19.78;100.00
24858;BME280;12935;50.782;6.074;2023-10-19T10:37:05;97174.88;;;19.86;100.00
24858;BME280;12935;50.782;6.074;2023-10-19T10:39:33;97174.09;;;19.91;100.00
24858;BME280;12935;50.782;6.074;2023-10-19T10:42:06;97175.81;;;20.00;100.00
24858;BME280;12935;50.782;6.074;2023-10-19T10:44:49;97164.50;;;19.98;100.00
24858;BME280;12935;50.782;6.074;2023-10-19T10:47:22;97164.03;;;19.88;100.00
24858;BME280;12935;50.782;6.074;2023-10-19T10:49:59;97164.19;;;19.66;100.00
24858;BME280;12935;50.782;6.074;2023-10-19T10:52:32;97166.22;;;19.54;100.00
24858;BME280;12935;50.782;6.074;2023-10-19T10:55:08;97163.75;;;19.45;100.00
24858;BME280;12935;50.782;6.074;2023-10-19T10:57:38;97161.53;;;19.32;100.00
24858;BME280;12935;50.782;6.074;2023-10-19T11:02:34;97157.22;;;19.37;100.00
24858;BME280;12935;50.782;6.074;2023-10-19T11:05:00;97151.22;;;19.33;100.00
24858;BME280;12935;50.782;6.074;2023-10-19T11:07:26;97152.97;;;19.30;100.00
24858;BME280;12935;50.782;6.074;2023-10-19T11:09:51;97153.72;;;19.31;100.00
24858;BME280;12935;50.782;6.074;2023-10-19T11:12:17;97152.28;;;19.18;100.00
24858;BME280;12935;50.782;6.074;2023-10-19T11:14:58;97152.78;;;19.17;100.00
24858;BME280;12935;50.782;6.074;2023-10-19T11:17:42;97149.75;;;19.15;100.00
24858;BME280;12935;50.782;6.074;2023-10-19T11:20:08;97154.78;;;19.16;100.00
24858;BME280;12935;50.782;6.074;2023-10-19T11:22:51;97151.53;;;19.12;100.00
24858;BME280;12935;50.782;6.074;2023-10-19T11:25:25;97137.44;;;19.10;100.00
24858;BME280;12935;50.782;6.074;2023-10-19T11:27:58;97145.47;;;19.14;100.00
24858;BME280;12935;50.782;6.074;2023-10-19T11:30:31;97132.91;;;19.13;100.00
24858;BME280;12935;50.782;6.074;2023-10-19T11:32:58;97139.94;;;19.08;100.00
24858;BME280;12935;50.782;6.074;2023-10-19T11:35:28;97139.94;;;19.08;100.00
24858;BME280;12935;50.782;6.074;2023-10-19T11:37:59;97139.19;;;19.08;100.00
24858;BME280;12935;50.782;6.074;2023-10-19T11:40:26;97138.47;;;19.02;100.00
24858;BME280;12935;50.782;6.074;2023-10-19T11:42:54;97142.47;;;19.06;100.00
24858;BME280;12935;50.782;6.074;2023-10-19T11:45:24;97141.22;;;19.07;100.00
24858;BME280;12935;50.782;6.074;2023-10-19T11:47:50;97135.97;;;19.04;100.00
24858;BME280;12935;50.782;6.074;2023-10-19T11:50:16;97135.97;;;19.04;100.00
24858;BME280;12935;50.782;6.074;2023-10-19T11:52:44;97127.13;;;19.05;100.00
24858;BME280;12935;50.782;6.074;2023-10-19T11:55:11;97128.44;;;18.99;100.00
24858;BME280;12935;50.782;6.074;2023-10-19T11:57:39;97116.34;;;18.90;100.00
24858;BME280;12935;50.782;6.074;2023-10-19T12:00:07;97117.16;;;18.85;100.00
24858;BME280;12935;50.782;6.074;2023-10-19T12:02:39;97128.72;;;18.84;100.00
24858;BME280;12935;50.782;6.074;2023-10-19T12:05:07;97119.91;;;18.85;100.00
24858;BME280;12935;50.782;6.074;2023-10-19T12:07:38;97119.16;;;18.79;100.00
24858;BME280;12935;50.782;6.074;2023-10-19T12:10:09;97131.25;;;18.71;100.00
24858;BME280;12935;50.782;6.074;2023-10-19T12:12:37;97119.16;;;18.74;100.00
24858;BME280;12935;50.782;6.074;2023-10-19T12:15:04;97126.97;;;18.75;100.00
24858;BME280;12935;50.782;6.074;2023-10-19T12:17:34;97119.94;;;18.63;100.00
24858;BME280;12935;50.782;6.074;2023-10-19T12:19:59;97108.88;;;18.52;100.00
24858;BME280;12935;50.782;6.074;2023-10-19T12:22:25;97109.38;;;18.50;100.00
24858;BME280;12935;50.782;6.074;2023-10-19T12:24:56;97105.38;;;18.46;100.00
24858;BME280;12935;50.782;6.074;2023-10-19T12:27:23;97118.44;;;18.45;100.00
24858;BME280;12935;50.782;6.074;2023-10-19T12:29:50;97102.13;;;18.36;100.00
24858;BME280;12935;50.782;6.074;2023-10-19T12:32:17;97114.69;;;18.32;100.00
24858;BME280;12935;50.782;6.074;2023-10-19T12:34:44;97113.44;;;18.21;100.00
24858;BME280;12935;50.782;6.074;2023-10-19T12:37:10;97118.19;;;17.87;100.00
24858;BME280;12935;50.782;6.074;2023-10-19T12:39:38;97108.66;;;17.77;100.00
24858;BME280;12935;50.782;6.074;2023-10-19T12:42:17;97114.09;;;17.61;100.00
24858;BME280;12935;50.782;6.074;2023-10-19T12:44:42;97110.28;;;17.41;100.00
24858;BME280;12935;50.782;6.074;2023-10-19T12:47:10;97115.06;;;17.46;100.00
24858;BME280;12935;50.782;6.074;2023-10-19T12:49:41;97112.06;;;17.44;100.00
24858;BME280;12935;50.782;6.074;2023-10-19T12:52:09;97104.72;;;17.25;100.00
24858;BME280;12935;50.782;6.074;2023-10-19T12:54:36;97101.44;;;17.15;100.00
24858;BME280;12935;50.782;6.074;2023-10-19T12:57:03;97102.16;;;17.10;100.00
24858;BME280;12935;50.782;6.074;2023-10-19T12:59:32;97093.38;;;17.17;100.00
24858;BME280;12935;50.782;6.074;2023-10-19T13:01:58;97086.13;;;17.14;100.00
24858;BME280;12935;50.782;6.074;2023-10-19T13:04:25;97089.88;;;17.11;100.00
24858;BME280;12935;50.782;6.074;2023-10-19T13:06:51;97083.81;;;17.07;100.00
24858;BME280;12935;50.782;6.074;2023-10-19T13:09:17;97079.78;;;17.02;100.00
24858;BME280;12935;50.782;6.074;2023-10-19T13:11:56;97075.25;;;16.94;100.00
24858;BME280;12935;50.782;6.074;2023-10-19T13:14:22;97077.72;;;16.86;100.00